Time;durP1;ratioP1;P1;durP2;ratioP2;P2;SDS_P1;SDS_P2;PMS_P1;PMS_P2;Temp;Humidity;BMP_temperature;BMP_pressure;BME280_temperature;BME280_humidity;BME280_pressure;Samples;Min_cycle;Max_cycle;Signal;HPM_P1;HPM_P2
2022/06/22 00:02:08;;;;;;;5.73;3.20;;;16.20;97.30;;;;;;5029764;28;20420;-89
2022/06/22 00:04:44;;;;;;;7.63;3.60;;;16.20;97.30;;;;;;5001231;28;20991;-89
2022/06/22 00:07:20;;;;;;;3.63;2.90;;;16.20;97.30;;;;;;5013594;28;20944;-88
2022/06/22 00:09:46;;;;;;;5.37;3.20;;;16.20;97.30;;;;;;4995949;28;20418;-89
2022/06/22 00:12:22;;;;;;;3.77;3.10;;;16.20;97.30;;;;;;5010401;28;20800;-89
2022/06/22 00:14:52;;;;;;;4.80;3.40;;;16.10;97.30;;;;;;5014988;28;20435;-89
2022/06/22 00:17:39;;;;;;;2.90;2.70;;;16.10;97.30;;;;;;5014482;28;20499;-90
2022/06/22 00:20:25;;;;;;;3.30;3.10;;;16.10;97.30;;;;;;5032611;28;20423;-87
2022/06/22 00:23:16;;;;;;;6.10;3.27;;;16.00;97.30;;;;;;5005143;28;20998;-88
2022/06/22 00:25:42;;;;;;;6.37;3.20;;;16.00;97.30;;;;;;4997038;28;20416;-87
2022/06/22 00:28:23;;;;;;;4.33;3.10;;;16.00;97.30;;;;;;5008109;28;20451;-88
2022/06/22 00:30:49;;;;;;;6.10;3.37;;;15.90;97.30;;;;;;4995909;28;20456;-87
2022/06/22 00:33:24;;;;;;;4.00;3.50;;;15.90;97.30;;;;;;5010045;28;20437;-88
2022/06/22 00:36:15;;;;;;;4.80;3.40;;;15.90;97.30;;;;;;5006234;28;20216;-88
2022/06/22 00:38:40;;;;;;;6.13;3.53;;;15.80;97.30;;;;;;5009008;28;20552;-87
2022/06/22 00:41:24;;;;;;;4.47;3.70;;;15.70;97.30;;;;;;5007948;28;20439;-87
2022/06/22 00:43:52;;;;;;;5.63;3.63;;;15.70;97.30;;;;;;4995553;28;20181;-90
2022/06/22 00:46:24;;;;;;;6.50;4.33;;;15.70;97.30;;;;;;5010178;28;20427;-88
2022/06/22 00:48:53;;;;;;;5.20;3.63;;;15.70;97.30;;;;;;5013841;28;20407;-88
2022/06/22 00:51:34;;;;;;;5.20;3.93;;;15.60;97.30;;;;;;5015113;28;20568;-88
2022/06/22 00:54:03;;;;;;;6.90;4.20;;;15.60;97.30;;;;;;5014583;28;20922;-88
2022/06/22 00:56:54;;;;;;;4.77;3.57;;;15.60;97.30;;;;;;5013449;28;20851;-89
2022/06/22 00:59:34;;;;;;;6.37;4.50;;;15.60;97.30;;;;;;5014087;28;20447;-89
2022/06/22 01:02:28;;;;;;;7.43;4.53;;;15.60;97.30;;;;;;5014605;28;20502;-89
2022/06/22 01:05:18;;;;;;;6.43;3.90;;;15.60;97.30;;;;;;5007380;28;20415;-89
2022/06/22 01:08:00;;;;;;;7.20;3.80;;;15.60;97.30;;;;;;5003756;28;20435;-89
2022/06/22 01:10:41;;;;;;;5.90;4.50;;;15.50;97.30;;;;;;5013874;28;20466;-89
2022/06/22 01:13:14;;;;;;;4.70;3.90;;;15.50;97.30;;;;;;5013815;28;20928;-89
2022/06/22 01:15:51;;;;;;;5.33;3.60;;;15.50;97.30;;;;;;5012422;28;20415;-89
2022/06/22 01:18:27;;;;;;;5.80;3.80;;;15.50;97.30;;;;;;5013413;28;20972;-89
2022/06/22 01:20:56;;;;;;;9.43;3.63;;;15.50;97.30;;;;;;5002443;28;20423;-88
2022/06/22 01:23:36;;;;;;;7.10;4.80;;;15.40;97.30;;;;;;5013987;28;20429;-89
2022/06/22 01:26:28;;;;;;;7.73;4.30;;;15.40;97.30;;;;;;5004297;28;20431;-89
2022/06/22 01:29:00;;;;;;;7.10;3.83;;;15.40;97.30;;;;;;5002099;28;20903;-89
2022/06/22 01:31:27;;;;;;;5.90;3.80;;;15.30;97.30;;;;;;5014231;28;20801;-89
2022/06/22 01:33:54;;;;;;;5.63;3.60;;;15.30;97.30;;;;;;5013450;28;20917;-88
2022/06/22 01:36:32;;;;;;;3.70;3.50;;;15.30;97.30;;;;;;5014395;28;20530;-89
2022/06/22 01:39:02;;;;;;;4.73;3.67;;;15.30;97.30;;;;;;5009799;28;20522;-89
2022/06/22 01:41:55;;;;;;;4.30;3.90;;;15.20;97.30;;;;;;5004225;28;20423;-88
2022/06/22 01:44:39;;;;;;;10.00;3.93;;;15.20;97.30;;;;;;5000872;28;20423;-89
2022/06/22 01:47:40;;;;;;;5.90;3.83;;;15.20;97.30;;;;;;5013198;28;20609;-89
2022/06/22 01:50:08;;;;;;;7.40;3.80;;;15.10;97.30;;;;;;5001185;28;20642;-89
2022/06/22 01:52:52;;;;;;;5.40;3.70;;;15.10;97.30;;;;;;5031362;28;20901;-89
2022/06/22 01:55:29;;;;;;;5.33;3.80;;;15.00;97.30;;;;;;5013210;28;20450;-89
2022/06/22 01:58:24;;;;;;;6.63;3.80;;;15.00;97.30;;;;;;5001994;28;20436;-89
2022/06/22 02:00:59;;;;;;;6.23;3.43;;;14.90;97.30;;;;;;5002580;28;20427;-89
2022/06/22 02:03:26;;;;;;;5.00;3.87;;;14.90;97.30;;;;;;5013584;28;20470;-89
2022/06/22 02:09:07;;;;;;;4.43;3.50;;;14.80;97.30;;;;;;5020779;28;20414;-89
2022/06/22 02:11:40;;;;;;;5.40;3.90;;;14.80;97.30;;;;;;5013106;28;20522;-89
2022/06/22 02:14:27;;;;;;;4.90;4.60;;;14.80;97.30;;;;;;5031249;28;20471;-89
2022/06/22 02:16:58;;;;;;;8.47;4.60;;;14.70;97.30;;;;;;5000264;28;20458;-89
2022/06/22 02:19:27;;;;;;;6.73;5.03;;;14.70;97.30;;;;;;5031171;28;20422;-89
2022/06/22 02:21:57;;;;;;;6.47;4.53;;;14.60;97.30;;;;;;5013402;28;20569;-89
2022/06/22 02:24:33;;;;;;;6.07;4.47;;;14.50;97.30;;;;;;5000780;28;20427;-89
2022/06/22 02:27:01;;;;;;;6.13;4.07;;;14.50;97.30;;;;;;5013461;28;20439;-89
2022/06/22 02:29:33;;;;;;;4.60;4.23;;;14.40;97.30;;;;;;5012858;28;20431;-89
2022/06/22 02:32:01;;;;;;;5.60;4.13;;;14.40;97.30;;;;;;5012476;28;20568;-89
2022/06/22 02:34:29;;;;;;;7.33;4.87;;;14.30;97.30;;;;;;5012458;28;20784;-89
2022/06/22 02:36:57;;;;;;;5.30;4.37;;;14.30;97.30;;;;;;5008972;28;20818;-89
2022/06/22 02:39:25;;;;;;;7.40;4.40;;;14.30;97.30;;;;;;5006388;28;20412;-89
2022/06/22 02:44:41;;;;;;;8.27;5.07;;;14.20;97.30;;;;;;5020010;28;20772;-89
2022/06/22 02:47:15;;;;;;;8.53;4.77;;;14.20;97.30;;;;;;5012558;28;20478;-90
2022/06/22 02:49:46;;;;;;;8.63;4.70;;;14.20;97.30;;;;;;5002152;28;20521;-89
2022/06/22 02:52:15;;;;;;;5.53;4.20;;;14.10;97.30;;;;;;4993673;28;20503;-89
2022/06/22 02:54:51;;;;;;;5.90;4.17;;;14.10;97.30;;;;;;5005012;28;20422;-89
2022/06/22 02:57:56;;;;;;;7.03;4.40;;;14.10;97.30;;;;;;5006224;28;20797;-89
2022/06/22 03:00:25;;;;;;;6.03;4.63;;;14.00;97.30;;;;;;5011223;28;20442;-89
2022/06/22 03:03:05;;;;;;;6.30;5.23;;;13.90;97.30;;;;;;5012767;28;20419;-89
2022/06/22 03:05:32;;;;;;;7.97;4.63;;;13.90;97.30;;;;;;4994890;28;20423;-89
2022/06/22 03:08:00;;;;;;;7.60;4.60;;;13.80;97.30;;;;;;5005988;28;20442;-89
2022/06/22 03:10:31;;;;;;;5.90;5.10;;;13.80;97.30;;;;;;5013161;28;20523;-89
2022/06/22 03:12:59;;;;;;;10.73;5.00;;;13.80;97.30;;;;;;5013208;28;20407;-88
2022/06/22 03:15:30;;;;;;;6.40;4.53;;;13.80;97.30;;;;;;5012793;28;20936;-88
2022/06/22 03:17:57;;;;;;;9.70;4.70;;;13.80;97.30;;;;;;5012694;28;20454;-88
2022/06/22 03:20:27;;;;;;;6.73;4.53;;;13.80;97.30;;;;;;5003945;28;20798;-89
2022/06/22 03:23:12;;;;;;;7.70;5.57;;;13.80;97.30;;;;;;5008911;28;20415;-89
2022/06/22 03:25:45;;;;;;;8.43;4.83;;;13.80;97.30;;;;;;5000611;28;20526;-90
2022/06/22 03:28:16;;;;;;;7.67;5.43;;;13.90;97.30;;;;;;5006033;28;20443;-88
2022/06/22 03:30:50;;;;;;;8.20;4.30;;;13.90;97.30;;;;;;5006654;28;20518;-89
2022/06/22 03:33:26;;;;;;;14.03;4.80;;;13.90;97.30;;;;;;5004294;28;20506;-89
2022/06/22 03:35:59;;;;;;;6.97;4.90;;;13.90;97.30;;;;;;5009308;28;20428;-89
2022/06/22 03:38:41;;;;;;;8.07;5.17;;;14.00;97.30;;;;;;5030647;28;20789;-89
2022/06/22 03:41:17;;;;;;;10.10;5.00;;;14.00;97.30;;;;;;4999839;28;20565;-88
2022/06/22 03:43:59;;;;;;;14.93;4.80;;;14.00;97.30;;;;;;5015780;28;20426;-89
2022/06/22 03:46:36;;;;;;;9.63;5.83;;;14.00;97.30;;;;;;5006953;28;20825;-89
2022/06/22 03:49:24;;;;;;;6.70;5.20;;;14.10;97.30;;;;;;5014191;28;20414;-88
2022/06/22 03:51:58;;;;;;;9.93;5.60;;;14.10;97.30;;;;;;5015641;28;20470;-88
2022/06/22 03:54:34;;;;;;;13.17;5.33;;;14.20;97.30;;;;;;5015875;28;20450;-89
2022/06/22 03:57:07;;;;;;;7.63;4.97;;;14.20;97.30;;;;;;5016287;28;20434;-88
2022/06/22 03:59:36;;;;;;;5.13;4.50;;;14.30;97.30;;;;;;5034005;28;20411;-88
2022/06/22 04:02:03;;;;;;;7.33;4.97;;;14.30;97.30;;;;;;5016540;28;20431;-89
2022/06/22 04:04:29;;;;;;;8.70;4.80;;;14.40;97.30;;;;;;5016291;28;20576;-89
2022/06/22 04:06:56;;;;;;;5.40;4.27;;;14.40;97.30;;;;;;5016424;28;20474;-89
2022/06/22 04:09:24;;;;;;;7.53;5.10;;;14.50;97.30;;;;;;5015799;28;20422;-89
2022/06/22 04:11:59;;;;;;;7.53;4.70;;;14.50;97.30;;;;;;5014436;28;20466;-88
2022/06/22 04:14:46;;;;;;;6.10;4.67;;;14.50;97.30;;;;;;5002810;28;20940;-89
2022/06/22 04:17:26;;;;;;;5.83;5.07;;;14.50;97.30;;;;;;4996602;28;20436;-87
2022/06/22 04:20:18;;;;;;;8.70;4.90;;;14.50;97.30;;;;;;5013637;28;20427;-88
2022/06/22 04:22:48;;;;;;;7.37;4.23;;;14.60;97.30;;;;;;5010969;28;20423;-89
2022/06/22 04:25:32;;;;;;;17.50;5.43;;;14.60;97.30;;;;;;5015358;28;20909;-89
2022/06/22 04:28:02;;;;;;;7.97;4.40;;;14.70;97.30;;;;;;5003269;28;20801;-90
2022/06/22 04:30:35;;;;;;;6.40;4.57;;;14.70;97.30;;;;;;5014424;28;20451;-89
2022/06/22 04:33:11;;;;;;;8.67;5.17;;;14.80;97.30;;;;;;5015473;28;20771;-89
2022/06/22 04:35:46;;;;;;;4.80;4.13;;;14.80;97.30;;;;;;5015247;28;20489;-89
2022/06/22 04:38:49;;;;;;;8.07;4.40;;;14.80;97.30;;;;;;5015866;28;20534;-89
2022/06/22 04:41:35;;;;;;;7.30;6.10;;;14.90;97.30;;;;;;5015372;28;20917;-89
2022/06/22 04:44:15;;;;;;;6.10;4.67;;;14.90;97.30;;;;;;5003590;28;20428;-89
2022/06/22 04:46:56;;;;;;;8.50;4.97;;;15.00;97.30;;;;;;5007436;28;20734;-89
2022/06/22 04:49:29;;;;;;;7.33;4.67;;;15.00;97.30;;;;;;5000148;28;20459;-89
2022/06/22 04:52:03;;;;;;;9.10;3.70;;;15.10;97.30;;;;;;5015153;28;20471;-89
2022/06/22 04:54:33;;;;;;;18.00;4.50;;;15.10;97.30;;;;;;5014218;28;20423;-89
2022/06/22 04:57:24;;;;;;;5.53;4.23;;;15.20;97.30;;;;;;5015928;28;21026;-89
2022/06/22 04:59:50;;;;;;;7.70;4.47;;;15.20;97.30;;;;;;5014674;28;21015;-89
2022/06/22 05:02:20;;;;;;;7.20;4.30;;;15.20;97.30;;;;;;5015710;28;20469;-89
2022/06/22 05:04:55;;;;;;;7.37;4.50;;;15.20;97.30;;;;;;5014807;28;20973;-89
2022/06/22 05:07:35;;;;;;;6.83;4.77;;;15.30;97.30;;;;;;5014905;28;20442;-90
2022/06/22 05:10:09;;;;;;;6.70;3.93;;;15.30;97.30;;;;;;5014528;28;20426;-90
2022/06/22 05:12:45;;;;;;;6.20;4.00;;;15.40;97.30;;;;;;5014876;28;20426;-89
2022/06/22 05:15:19;;;;;;;7.33;4.10;;;15.50;97.30;;;;;;5014744;28;20423;-89
2022/06/22 05:17:46;;;;;;;5.70;4.30;;;15.50;97.30;;;;;;5014526;28;21013;-90
2022/06/22 05:20:14;;;;;;;11.43;4.10;;;15.60;97.30;;;;;;5007436;28;20440;-90
2022/06/22 05:22:40;;;;;;;10.23;5.50;;;15.70;97.30;;;;;;5009746;28;20427;-89
2022/06/22 05:25:11;;;;;;;9.30;6.70;;;15.70;97.30;;;;;;5014623;28;20434;-87
2022/06/22 05:27:51;;;;;;;8.30;5.00;;;15.70;97.30;;;;;;5000238;28;20205;-90
2022/06/22 05:30:17;;;;;;;6.80;5.00;;;15.80;97.30;;;;;;5014280;28;20834;-89
2022/06/22 05:32:47;;;;;;;7.37;4.40;;;15.90;97.30;;;;;;5001649;28;20407;-89
2022/06/22 05:35:19;;;;;;;13.33;4.50;;;16.00;97.30;;;;;;5014637;28;20447;-89
2022/06/22 05:37:50;;;;;;;10.20;4.77;;;16.00;97.30;;;;;;5004757;28;21059;-89
2022/06/22 05:40:17;;;;;;;7.77;4.07;;;16.10;97.30;;;;;;5004901;28;20427;-89
2022/06/22 05:42:43;;;;;;;8.70;5.50;;;16.10;97.30;;;;;;5010632;28;20419;-90
2022/06/22 05:45:22;;;;;;;13.40;4.80;;;16.20;97.30;;;;;;5006590;28;20428;-89
2022/06/22 05:47:48;;;;;;;9.17;5.37;;;16.20;97.30;;;;;;5009102;28;20232;-89
2022/06/22 05:50:28;;;;;;;9.57;5.53;;;16.30;97.30;;;;;;5005852;28;20460;-89
2022/06/22 05:53:02;;;;;;;7.43;4.40;;;16.30;97.30;;;;;;5011955;28;20168;-89
2022/06/22 05:55:38;;;;;;;5.83;4.77;;;16.40;97.30;;;;;;5013800;28;20425;-88
2022/06/22 05:58:28;;;;;;;10.07;4.67;;;16.50;97.30;;;;;;5017349;28;20441;-89
2022/06/22 06:00:56;;;;;;;7.90;4.70;;;16.50;97.30;;;;;;5019082;28;20407;-89
2022/06/22 06:03:28;;;;;;;8.03;4.27;;;16.60;97.30;;;;;;5013570;28;20581;-88
2022/06/22 06:06:09;;;;;;;10.00;5.00;;;16.60;97.30;;;;;;5013667;28;20426;-88
2022/06/22 06:08:46;;;;;;;7.40;4.90;;;16.70;97.30;;;;;;5013755;28;20423;-88
2022/06/22 06:11:19;;;;;;;6.70;4.83;;;16.70;97.30;;;;;;5000323;28;20836;-89
2022/06/22 06:14:02;;;;;;;8.63;4.83;;;16.80;97.30;;;;;;4994200;28;20424;-89
2022/06/22 06:16:39;;;;;;;5.80;4.10;;;16.80;97.30;;;;;;5010083;28;20439;-89
2022/06/22 06:19:07;;;;;;;7.13;4.20;;;16.90;97.30;;;;;;5014086;28;20783;-89
2022/06/22 06:21:36;;;;;;;8.30;4.20;;;17.00;97.30;;;;;;5002228;28;20970;-89
2022/06/22 06:24:20;;;;;;;7.77;4.13;;;17.10;97.30;;;;;;5001208;28;20431;-89
2022/06/22 06:29:53;;;;;;;10.50;4.67;;;17.20;97.30;;;;;;5021912;28;20990;-87
2022/06/22 06:32:46;;;;;;;5.30;4.17;;;17.30;97.30;;;;;;5030833;28;20549;-89
2022/06/22 06:35:26;;;;;;;5.60;4.23;;;17.40;97.30;;;;;;5013118;28;20419;-89
2022/06/22 06:38:13;;;;;;;5.20;4.43;;;17.40;97.30;;;;;;5011624;28;20529;-89
2022/06/22 06:41:01;;;;;;;4.43;4.00;;;17.50;97.30;;;;;;4994981;28;20424;-88
2022/06/22 06:43:50;;;;;;;6.03;3.90;;;17.60;97.30;;;;;;4997160;28;20430;-88
2022/06/22 06:46:40;;;;;;;7.73;3.90;;;17.70;97.30;;;;;;5012876;28;20707;-88
2022/06/22 06:49:13;;;;;;;7.17;3.87;;;17.80;97.20;;;;;;5002665;28;20781;-89
2022/06/22 06:51:45;;;;;;;6.93;3.80;;;17.90;96.50;;;;;;5012695;28;20474;-88
2022/06/22 06:54:33;;;;;;;5.23;3.70;;;18.00;96.10;;;;;;5013343;28;20947;-88
2022/06/22 06:57:14;;;;;;;5.00;3.40;;;18.10;96.00;;;;;;5019994;28;20443;-88
2022/06/22 06:59:42;;;;;;;3.57;2.83;;;18.20;95.20;;;;;;5003547;28;20455;-88
2022/06/22 07:02:36;;;;;;;4.43;2.70;;;18.30;94.30;;;;;;5009303;28;20420;-88
2022/06/22 07:05:06;;;;;;;5.63;3.27;;;18.40;93.20;;;;;;4997698;28;20573;-88
2022/06/22 07:07:37;;;;;;;6.23;3.13;;;18.50;93.10;;;;;;5012358;28;20481;-88
2022/06/22 07:10:17;;;;;;;4.00;3.10;;;18.60;93.10;;;;;;4999601;28;20808;-88
2022/06/22 07:12:59;;;;;;;9.57;3.80;;;18.70;91.50;;;;;;5012981;28;20745;-88
2022/06/22 07:15:41;;;;;;;5.57;3.23;;;18.90;90.90;;;;;;4993640;28;20415;-88
2022/06/22 07:18:18;;;;;;;8.57;3.50;;;19.00;91.00;;;;;;5013535;28;20422;-87
2022/06/22 07:20:48;;;;;;;3.90;3.70;;;19.10;91.00;;;;;;5017059;28;20796;-88
2022/06/22 07:23:22;;;;;;;3.63;3.23;;;19.20;90.60;;;;;;5016507;28;20447;-88
2022/06/22 07:26:26;;;;;;;4.50;2.77;;;19.40;89.80;;;;;;5016342;28;20446;-88
2022/06/22 07:29:09;;;;;;;5.77;3.50;;;19.50;89.80;;;;;;4967190;28;20939;-88
2022/06/22 07:31:42;;;;;;;5.47;3.40;;;19.60;89.90;;;;;;5022493;28;20458;-87
2022/06/22 07:34:23;;;;;;;4.80;3.83;;;19.70;90.30;;;;;;5016175;28;20406;-87
2022/06/22 07:36:56;;;;;;;5.90;4.30;;;19.80;90.30;;;;;;5012618;28;20452;-87
2022/06/22 07:39:38;;;;;;;7.40;4.30;;;20.00;90.30;;;;;;4997214;28;20698;-86
2022/06/22 07:42:04;;;;;;;8.63;3.57;;;20.10;90.10;;;;;;5010556;28;20833;-85
2022/06/22 07:44:33;;;;;;;5.57;3.40;;;20.20;89.80;;;;;;5033802;28;20419;-87
2022/06/22 07:47:24;;;;;;;8.43;3.80;;;20.30;88.90;;;;;;5014787;28;20826;-85
2022/06/22 07:50:25;;;;;;;6.80;3.73;;;20.40;89.30;;;;;;5015923;28;20451;-86
2022/06/22 07:53:00;;;;;;;5.97;3.27;;;20.50;88.70;;;;;;5000187;28;20431;-85
2022/06/22 07:55:52;;;;;;;5.43;3.80;;;20.50;87.70;;;;;;5001653;28;20427;-85
2022/06/22 07:58:27;;;;;;;3.33;3.07;;;20.60;87.70;;;;;;5015130;28;20443;-84
2022/06/22 08:00:57;;;;;;;3.97;3.70;;;20.70;86.70;;;;;;5015768;28;20521;-85
2022/06/22 08:03:44;;;;;;;10.77;3.57;;;20.80;86.80;;;;;;5015612;28;20675;-85
2022/06/22 08:06:35;;;;;;;5.87;3.27;;;20.90;86.60;;;;;;5001692;28;20420;-85
2022/06/22 08:09:15;;;;;;;6.50;4.00;;;21.10;86.20;;;;;;5015573;28;20415;-85
2022/06/22 08:11:59;;;;;;;4.40;3.60;;;21.10;86.10;;;;;;5015402;28;20802;-85
2022/06/22 08:14:42;;;;;;;3.50;2.97;;;21.20;85.00;;;;;;5015708;28;20427;-86
2022/06/22 08:17:37;;;;;;;4.77;3.50;;;21.30;84.90;;;;;;5007022;28;20454;-85
2022/06/22 08:20:05;;;;;;;11.97;4.60;;;21.40;84.30;;;;;;4983308;28;20976;-86
2022/06/22 08:22:30;;;;;;;6.07;3.40;;;21.50;84.50;;;;;;5002451;28;20431;-86
2022/06/22 08:24:57;;;;;;;4.47;3.17;;;21.60;84.40;;;;;;4995975;28;20411;-86
2022/06/22 08:27:25;;;;;;;3.80;3.23;;;21.60;83.90;;;;;;4997674;28;20208;-86
2022/06/22 08:29:52;;;;;;;7.10;3.20;;;21.70;83.80;;;;;;5014972;28;20927;-87
2022/06/22 08:32:30;;;;;;;9.50;3.77;;;21.70;83.80;;;;;;5002378;28;20508;-86
2022/06/22 08:35:01;;;;;;;3.53;2.87;;;21.80;83.60;;;;;;5004777;28;20407;-86
2022/06/22 08:37:36;;;;;;;7.10;3.17;;;21.90;83.30;;;;;;5032474;28;20439;-86
2022/06/22 08:40:14;;;;;;;3.73;2.90;;;22.00;82.50;;;;;;5014964;28;20514;-86
2022/06/22 08:42:54;;;;;;;3.63;3.00;;;22.10;82.10;;;;;;5014545;28;20987;-85
2022/06/22 08:45:57;;;;;;;3.67;2.90;;;22.10;82.50;;;;;;5002083;28;20430;-85
2022/06/22 08:48:41;;;;;;;3.13;2.93;;;22.30;82.00;;;;;;5014311;28;20454;-85
2022/06/22 08:51:14;;;;;;;6.23;3.20;;;22.40;82.70;;;;;;5021260;28;20463;-86
2022/06/22 08:53:54;;;;;;;4.00;3.10;;;22.50;82.50;;;;;;5001349;28;21148;-85
2022/06/22 08:56:41;;;;;;;4.00;2.90;;;22.60;82.10;;;;;;5014381;28;20940;-86
2022/06/22 08:59:24;;;;;;;12.50;4.00;;;22.70;82.00;;;;;;5020594;28;20447;-85
2022/06/22 09:01:59;;;;;;;4.80;3.00;;;22.80;82.10;;;;;;5013735;28;20469;-85
2022/06/22 09:04:55;;;;;;;7.30;3.00;;;22.90;81.80;;;;;;5014253;28;20427;-86
2022/06/22 09:07:45;;;;;;;4.40;3.40;;;23.00;81.30;;;;;;5020284;28;20471;-85
2022/06/22 09:10:29;;;;;;;3.60;3.03;;;23.00;80.30;;;;;;5032545;28;20490;-86
2022/06/22 09:13:19;;;;;;;4.20;3.10;;;23.10;80.10;;;;;;5014569;28;20835;-85
2022/06/22 09:16:05;;;;;;;4.70;3.00;;;23.20;80.90;;;;;;5014560;28;20948;-86
2022/06/22 09:18:42;;;;;;;3.97;2.73;;;23.20;80.40;;;;;;5019725;28;20411;-86
2022/06/22 09:21:26;;;;;;;4.27;2.90;;;23.20;80.40;;;;;;5001340;28;20473;-86
2022/06/22 09:24:19;;;;;;;3.10;2.80;;;23.20;80.70;;;;;;5002851;28;20976;-85
2022/06/22 09:27:13;;;;;;;5.63;3.27;;;23.20;80.70;;;;;;5002874;28;20710;-85
2022/06/22 09:30:04;;;;;;;7.03;3.40;;;23.20;80.30;;;;;;5013314;28;20419;-85
2022/06/22 09:32:48;;;;;;;12.60;4.13;;;23.30;80.50;;;;;;5003140;28;20428;-87
2022/06/22 09:35:40;;;;;;;4.57;3.07;;;23.40;80.90;;;;;;5013747;28;20495;-85
2022/06/22 09:38:23;;;;;;;4.57;2.80;;;23.40;80.20;;;;;;5013265;28;20462;-85
2022/06/22 09:41:06;;;;;;;3.00;2.80;;;23.50;79.60;;;;;;5013469;28;20472;-86
2022/06/22 09:44:01;;;;;;;4.00;2.50;;;23.50;79.90;;;;;;5031184;28;20415;-86
2022/06/22 09:46:42;;;;;;;8.73;3.13;;;23.60;79.50;;;;;;5013648;28;20498;-84
2022/06/22 09:49:10;;;;;;;4.97;2.90;;;23.70;79.80;;;;;;5013553;28;20431;-85
2022/06/22 09:52:11;;;;;;;4.13;3.00;;;23.80;79.20;;;;;;5005469;28;20448;-86
2022/06/22 09:58:29;;;;;;;3.83;2.80;;;24.10;80.10;;;;;;5031656;28;20422;-86
2022/06/22 10:01:09;;;;;;;3.67;3.47;;;24.30;80.90;;;;;;5008638;28;20412;-86
2022/06/22 10:04:05;;;;;;;5.87;2.73;;;24.40;79.90;;;;;;5007486;28;20427;-85
2022/06/22 10:06:37;;;;;;;3.60;3.10;;;24.50;78.20;;;;;;5009094;28;20492;-85
2022/06/22 10:09:11;;;;;;;5.03;3.10;;;24.60;77.60;;;;;;5013013;28;20561;-86
2022/06/22 10:12:15;;;;;;;2.83;2.63;;;24.60;77.20;;;;;;5012968;28;20556;-86
2022/06/22 10:14:59;;;;;;;5.23;2.97;;;24.60;77.60;;;;;;5013008;28;20480;-85
2022/06/22 10:17:59;;;;;;;3.87;2.47;;;24.60;76.60;;;;;;5013594;28;20979;-84
2022/06/22 10:20:50;;;;;;;3.53;2.90;;;24.70;77.70;;;;;;5003038;28;20428;-86
2022/06/22 10:23:29;;;;;;;3.00;2.73;;;24.80;78.20;;;;;;5012438;28;20779;-85
2022/06/22 10:26:13;;;;;;;6.67;2.90;;;24.90;78.60;;;;;;5012824;28;20427;-86
2022/06/22 10:28:52;;;;;;;2.70;2.60;;;25.00;77.60;;;;;;5012644;28;20427;-85
2022/06/22 10:31:37;;;;;;;3.23;2.63;;;25.20;77.30;;;;;;5012533;28;20972;-85
2022/06/22 10:34:31;;;;;;;3.43;2.50;;;25.30;76.80;;;;;;5012873;28;20426;-85
2022/06/22 10:37:27;;;;;;;3.43;2.70;;;25.30;75.20;;;;;;5008109;28;20452;-85
2022/06/22 10:40:07;;;;;;;4.97;2.70;;;25.40;76.40;;;;;;4993305;28;21066;-86
2022/06/22 10:45:49;;;;;;;3.70;2.93;;;25.50;74.60;;;;;;5031220;28;20438;-86
2022/06/22 10:48:52;;;;;;;3.73;3.20;;;25.70;75.90;;;;;;5013241;28;20466;-85
2022/06/22 10:51:42;;;;;;;4.27;2.73;;;25.80;73.70;;;;;;5012037;28;20557;-85
2022/06/22 10:54:37;;;;;;;3.30;2.53;;;25.90;74.40;;;;;;5000069;28;20933;-85
2022/06/22 10:57:34;;;;;;;5.93;2.70;;;25.90;73.00;;;;;;5012479;28;20474;-84
2022/06/22 11:00:10;;;;;;;4.90;2.80;;;26.00;74.00;;;;;;5012338;28;20920;-85
2022/06/22 11:02:42;;;;;;;4.23;2.40;;;26.00;73.70;;;;;;5012629;28;20419;-85
2022/06/22 11:05:10;;;;;;;2.50;2.30;;;26.10;74.40;;;;;;5006360;28;20432;-86
2022/06/22 11:07:39;;;;;;;3.43;2.47;;;26.20;73.70;;;;;;5002995;28;20435;-84
2022/06/22 11:10:13;;;;;;;4.00;2.40;;;26.30;73.40;;;;;;5012042;28;20423;-85
2022/06/22 11:13:06;;;;;;;3.37;2.73;;;26.30;72.20;;;;;;5012478;28;20426;-85
2022/06/22 11:15:42;;;;;;;4.23;2.53;;;26.30;72.20;;;;;;4992799;28;20419;-84
2022/06/22 11:18:25;;;;;;;4.40;2.40;;;26.40;71.70;;;;;;5009358;28;21001;-85
2022/06/22 11:21:11;;;;;;;3.50;2.60;;;26.50;72.70;;;;;;5030016;28;20430;-84
2022/06/22 11:24:11;;;;;;;4.37;2.10;;;26.50;72.60;;;;;;4992970;28;20428;-84
2022/06/22 11:32:57;;;;;;;3.70;2.33;;;26.80;72.00;;;;;;5031283;28;20512;-86
2022/06/22 11:35:54;;;;;;;5.37;2.40;;;26.90;72.40;;;;;;5012604;28;20828;-85
2022/06/22 11:38:38;;;;;;;3.37;2.60;;;27.10;71.20;;;;;;5033375;28;20455;-85
2022/06/22 11:41:26;;;;;;;2.33;2.03;;;27.10;69.80;;;;;;5032002;28;20518;-84
2022/06/22 11:44:25;;;;;;;2.43;2.23;;;27.10;69.60;;;;;;4999401;28;20427;-85
2022/06/22 11:46:54;;;;;;;4.43;2.40;;;27.20;69.80;;;;;;5012182;28;20998;-85
2022/06/22 11:49:28;;;;;;;3.20;2.63;;;27.30;70.70;;;;;;5012271;28;20785;-85
2022/06/22 11:52:16;;;;;;;4.43;2.57;;;27.40;71.60;;;;;;5011635;28;20835;-86
2022/06/22 11:55:00;;;;;;;4.83;2.70;;;27.50;70.10;;;;;;5011848;28;20419;-85
2022/06/22 11:57:38;;;;;;;3.10;2.37;;;27.60;71.20;;;;;;5000385;28;20478;-85
2022/06/22 12:00:34;;;;;;;4.03;2.47;;;27.70;69.90;;;;;;5011858;28;20921;-85
2022/06/22 12:03:21;;;;;;;8.40;3.17;;;27.70;68.90;;;;;;5013338;28;20450;-85
2022/06/22 12:06:14;;;;;;;4.03;2.83;;;27.70;68.00;;;;;;5023323;28;20525;-86
2022/06/22 12:08:54;;;;;;;4.30;2.40;;;27.60;67.40;;;;;;5015719;28;20481;-85
2022/06/22 12:11:49;;;;;;;2.53;2.03;;;27.70;68.60;;;;;;5015507;28;20805;-86
2022/06/22 12:17:41;;;;;;;2.40;2.20;;;27.70;67.20;;;;;;5024160;28;20436;-86
2022/06/22 12:20:06;;;;;;;4.70;2.60;;;27.80;68.70;;;;;;4977800;28;20438;-87
2022/06/22 12:22:56;;;;;;;3.53;2.37;;;27.90;69.40;;;;;;5015202;28;20407;-84
2022/06/22 12:25:59;;;;;;;5.53;2.97;;;28.00;69.20;;;;;;5012229;28;20448;-85
2022/06/22 12:28:59;;;;;;;3.53;2.30;;;28.10;68.10;;;;;;5029397;28;20977;-83
2022/06/22 12:31:35;;;;;;;2.80;2.53;;;28.10;68.10;;;;;;5004196;28;20467;-85
2022/06/22 12:34:25;;;;;;;5.23;2.47;;;28.20;68.70;;;;;;5015831;28;20425;-86
2022/06/22 12:36:56;;;;;;;7.33;2.50;;;28.30;67.30;;;;;;5015163;28;20475;-85
2022/06/22 12:39:35;;;;;;;7.27;2.27;;;28.30;65.80;;;;;;5002722;28;20434;-86
2022/06/22 12:42:35;;;;;;;5.10;2.30;;;28.30;65.50;;;;;;5014854;28;20426;-85
2022/06/22 12:45:22;;;;;;;4.80;1.80;;;28.40;66.80;;;;;;5014850;28;20474;-86
2022/06/22 12:48:11;;;;;;;3.27;2.00;;;28.50;65.80;;;;;;5014683;28;20474;-86
2022/06/22 12:50:54;;;;;;;3.07;2.03;;;28.60;65.30;;;;;;5001474;28;20478;-85
2022/06/22 12:53:41;;;;;;;5.33;1.87;;;28.60;65.90;;;;;;5014970;28;20481;-86
2022/06/22 12:56:25;;;;;;;2.50;2.10;;;28.70;65.10;;;;;;5014996;28;20670;-85
2022/06/22 12:59:00;;;;;;;2.80;1.80;;;28.70;65.90;;;;;;5015251;28;20560;-86
2022/06/22 13:01:26;;;;;;;3.40;2.00;;;28.80;67.00;;;;;;5014054;28;20422;-84
2022/06/22 13:04:07;;;;;;;2.90;2.30;;;28.90;65.00;;;;;;5014977;28;20423;-85
2022/06/22 13:06:34;;;;;;;3.00;2.20;;;28.90;65.00;;;;;;5031712;28;20435;-85
2022/06/22 13:09:02;;;;;;;3.97;2.00;;;28.90;65.30;;;;;;5010334;28;20510;-85
2022/06/22 13:11:29;;;;;;;3.20;1.87;;;28.90;65.60;;;;;;4994683;28;20972;-85
2022/06/22 13:14:04;;;;;;;5.87;2.20;;;28.90;64.30;;;;;;5007731;28;20460;-85
2022/06/22 13:16:42;;;;;;;3.30;2.00;;;28.90;64.40;;;;;;4994496;28;20436;-85
2022/06/22 13:19:19;;;;;;;4.03;1.83;;;29.00;65.80;;;;;;4995604;28;20408;-86
2022/06/22 13:21:55;;;;;;;2.73;1.90;;;29.10;65.10;;;;;;4997160;28;20888;-85
2022/06/22 13:24:48;;;;;;;2.43;2.00;;;29.10;64.60;;;;;;5014863;28;20529;-85
2022/06/22 13:27:20;;;;;;;3.53;1.90;;;29.20;63.50;;;;;;5014398;28;20870;-83
2022/06/22 13:29:56;;;;;;;2.43;1.73;;;29.30;63.60;;;;;;5013857;28;20454;-87
2022/06/22 13:32:25;;;;;;;4.03;1.87;;;29.40;65.50;;;;;;5013941;28;21014;-84
2022/06/22 13:35:00;;;;;;;2.10;1.90;;;29.60;64.00;;;;;;5013927;28;20423;-86
2022/06/22 13:37:49;;;;;;;2.70;2.33;;;29.60;63.10;;;;;;5013830;28;20525;-85
2022/06/22 13:40:37;;;;;;;6.30;2.43;;;29.60;63.70;;;;;;5001743;28;21015;-85
2022/06/22 13:43:53;;;;;;;3.80;1.80;;;29.70;63.70;;;;;;5013323;28;20419;-86
2022/06/22 13:46:19;;;;;;;2.60;2.00;;;29.80;63.50;;;;;;4974156;28;21061;-84
2022/06/22 13:49:04;;;;;;;1.87;1.83;;;29.90;63.30;;;;;;5004544;28;20414;-84
2022/06/22 13:51:51;;;;;;;2.00;1.90;;;29.90;63.90;;;;;;5018153;28;20220;-85
2022/06/22 13:54:35;;;;;;;3.73;1.77;;;30.00;64.00;;;;;;5013131;28;20423;-85
2022/06/22 13:57:23;;;;;;;3.00;1.80;;;30.00;62.40;;;;;;5013395;28;20435;-85
2022/06/22 13:59:58;;;;;;;5.10;1.70;;;30.00;62.60;;;;;;5002698;28;20451;-84
2022/06/22 14:02:51;;;;;;;2.77;2.10;;;30.00;63.10;;;;;;5030981;28;20476;-84
2022/06/22 14:05:22;;;;;;;1.87;1.87;;;30.00;61.90;;;;;;5020658;28;20792;-85
2022/06/22 14:08:19;;;;;;;1.87;1.87;;;29.90;62.00;;;;;;4997242;28;20444;-84
2022/06/22 14:10:47;;;;;;;3.43;2.00;;;30.00;63.50;;;;;;5003642;28;20470;-84
2022/06/22 14:13:19;;;;;;;2.03;1.80;;;30.10;63.10;;;;;;5004753;28;20442;-85